Time;durP1;ratioP1;P1;durP2;ratioP2;P2;SDS_P1;SDS_P2;PMS_P1;PMS_P2;Temp;Humidity;BMP_temperature;BMP_pressure;BME280_temperature;BME280_humidity;BME280_pressure;Samples;Min_cycle;Max_cycle;Signal;HPM_P1;HPM_P2
2022/08/11 00:00:47;;;;;;;10.60;5.82;;;;;;;21.49;60.98;102437.63;5150489;28;20511;-58
2022/08/11 00:03:21;;;;;;;9.88;5.90;;;;;;;21.52;60.94;102444.50;5150829;28;20413;-59
2022/08/11 00:05:56;;;;;;;9.15;5.70;;;;;;;21.53;61.07;102446.19;5152483;28;20511;-59
2022/08/11 00:08:32;;;;;;;8.85;5.45;;;;;;;21.46;60.96;102443.38;5171678;28;20414;-59
2022/08/11 00:11:09;;;;;;;10.88;6.03;;;;;;;21.55;61.04;102442.28;5171226;28;20486;-59
2022/08/11 00:13:45;;;;;;;11.82;6.35;;;;;;;21.55;61.17;102438.75;5168897;28;20723;-58
2022/08/11 00:16:21;;;;;;;7.25;5.53;;;;;;;21.55;61.30;102439.59;5139497;28;20991;-59
2022/08/11 00:18:58;;;;;;;19.40;5.85;;;;;;;21.54;61.46;102446.00;5150268;28;20411;-59
2022/08/11 00:21:31;;;;;;;8.18;5.55;;;;;;;21.55;61.51;102446.81;5151175;28;20413;-59
2022/08/11 00:24:04;;;;;;;6.00;5.40;;;;;;;21.54;61.65;102448.69;5151640;28;20781;-59
2022/08/11 00:26:39;;;;;;;9.65;5.85;;;;;;;21.57;61.47;102445.63;5146240;28;20768;-59
2022/08/11 00:29:12;;;;;;;10.40;5.35;;;;;;;21.56;61.62;102449.34;5148352;28;20408;-58
2022/08/11 00:31:49;;;;;;;9.10;5.10;;;;;;;21.57;61.60;102445.63;5151144;28;20462;-59
2022/08/11 00:34:29;;;;;;;10.48;5.82;;;;;;;21.58;61.57;102449.16;5146502;28;20414;-55
2022/08/11 00:37:05;;;;;;;10.52;5.30;;;;;;;21.47;61.66;102434.31;5148097;28;20797;-59
2022/08/11 00:39:49;;;;;;;10.15;5.55;;;;;;;21.57;61.80;102456.38;5142513;28;20809;-58
2022/08/11 00:42:33;;;;;;;8.32;5.45;;;;;;;21.56;61.70;102446.66;5149135;28;20519;-60
2022/08/11 00:45:12;;;;;;;6.50;5.03;;;;;;;21.55;61.80;102442.28;5143563;28;20414;-57
2022/08/11 00:48:01;;;;;;;10.65;5.70;;;;;;;21.56;61.81;102456.59;5140440;28;20771;-58
2022/08/11 00:50:46;;;;;;;8.23;5.07;;;;;;;21.53;61.80;102451.56;5145210;28;20431;-60
2022/08/11 00:53:36;;;;;;;8.48;5.82;;;;;;;21.53;61.77;102449.72;5142399;28;20421;-58
2022/08/11 00:56:45;;;;;;;12.23;5.63;;;;;;;21.52;61.63;102448.03;5138836;28;20773;-58
2022/08/11 00:59:56;;;;;;;10.50;5.70;;;;;;;21.50;61.74;102444.69;5147280;28;20729;-58
2022/08/11 01:02:47;;;;;;;9.23;5.37;;;;;;;21.48;61.66;102451.28;5147468;28;20922;-58
2022/08/11 01:06:07;;;;;;;9.93;5.83;;;;;;;21.45;61.79;102447.09;5148936;28;20799;-58
2022/08/11 01:09:20;;;;;;;7.15;5.60;;;;;;;21.43;61.87;102443.78;5136637;28;20555;-58
2022/08/11 01:12:21;;;;;;;7.07;5.73;;;;;;;21.38;61.91;102448.84;5147143;28;20782;-58
2022/08/11 01:15:58;;;;;;;8.55;5.68;;;;;;;21.33;61.96;102443.16;5153479;28;20423;-60
2022/08/11 01:19:00;;;;;;;11.25;6.40;;;;;;;21.27;62.10;102444.69;5147685;28;20869;-61
2022/08/11 01:22:16;;;;;;;9.68;7.15;;;;;;;21.27;62.11;102443.88;5148485;28;20914;-58
2022/08/11 01:25:46;;;;;;;9.35;6.85;;;;;;;21.24;62.23;102438.84;5148688;28;20405;-59
2022/08/11 01:29:05;;;;;;;8.02;6.15;;;;;;;21.24;62.08;102438.84;5113881;28;20451;-58
2022/08/11 01:32:19;;;;;;;8.65;6.28;;;;;;;21.22;62.09;102441.75;5149244;28;20409;-57
2022/08/11 01:35:33;;;;;;;9.65;6.32;;;;;;;21.25;62.21;102436.00;5148776;28;20409;-56
2022/08/11 01:39:04;;;;;;;12.35;6.72;;;;;;;21.25;62.33;102440.56;5140264;28;20401;-57
2022/08/11 01:45:23;;;;;;;9.38;6.50;;;;;;;21.22;62.26;102435.53;5134653;28;20523;-57
2022/08/11 01:48:03;;;;;;;9.30;6.70;;;;;;;21.18;62.29;102424.28;5142807;28;20518;-57
2022/08/11 01:51:03;;;;;;;8.38;6.78;;;;;;;21.18;62.37;102430.53;5136760;28;20874;-58
2022/08/11 01:53:49;;;;;;;8.10;6.50;;;;;;;21.15;62.30;102425.50;5136119;28;20873;-58
2022/08/11 01:56:49;;;;;;;7.82;5.68;;;;;;;21.14;62.24;102429.19;5137208;28;20751;-57
2022/08/11 01:59:27;;;;;;;10.75;6.65;;;;;;;21.00;62.42;102404.97;5145766;28;20758;-58
2022/08/11 02:02:48;;;;;;;10.10;6.75;;;;;;;21.16;62.16;102429.03;5170044;28;20623;-60
2022/08/11 02:05:38;;;;;;;10.95;6.63;;;;;;;21.15;62.34;102427.34;5153988;28;20856;-58
2022/08/11 02:08:29;;;;;;;11.07;6.85;;;;;;;21.13;62.23;102442.81;5162487;28;20413;-56
2022/08/11 02:11:32;;;;;;;11.60;6.55;;;;;;;21.11;62.30;102434.09;5169788;28;20415;-57
2022/08/11 02:14:19;;;;;;;6.95;6.10;;;;;;;21.06;62.38;102426.59;5166602;28;20411;-57
2022/08/11 02:17:15;;;;;;;12.30;6.80;;;;;;;21.04;62.36;102428.63;5148190;28;20944;-58
2022/08/11 02:25:55;;;;;;;9.60;7.07;;;;;;;20.37;62.49;102324.53;5147793;28;20483;-60
2022/08/11 02:28:37;;;;;;;11.10;6.38;;;;;;;20.98;62.45;102421.28;5149338;28;20730;-59
2022/08/11 02:34:19;;;;;;;9.53;5.90;;;;;;;20.94;62.48;102423.50;5148307;28;20538;-60
2022/08/11 02:37:00;;;;;;;9.07;6.80;;;;;;;20.89;62.72;102423.19;5139348;28;20423;-58
2022/08/11 02:39:47;;;;;;;9.50;6.63;;;;;;;20.85;62.64;102419.19;5144288;28;20405;-60
2022/08/11 02:42:29;;;;;;;9.52;6.68;;;;;;;20.82;62.62;102414.19;5144454;28;20424;-58
2022/08/11 02:45:31;;;;;;;9.40;6.20;;;;;;;20.82;62.64;102413.34;5137234;28;20393;-57
2022/08/11 02:51:12;;;;;;;9.57;6.65;;;;;;;20.71;62.66;102402.00;5145874;28;20534;-57
2022/08/11 02:53:54;;;;;;;9.32;6.78;;;;;;;20.80;62.67;102415.38;5139041;28;20726;-57
2022/08/11 02:56:43;;;;;;;8.35;6.82;;;;;;;20.78;62.71;102412.03;5148203;28;20438;-57
2022/08/11 02:59:52;;;;;;;9.30;6.80;;;;;;;20.78;62.62;102409.34;5127802;28;20922;-59
2022/08/11 03:03:06;;;;;;;12.10;7.40;;;;;;;20.77;62.60;102405.00;5152159;28;20487;-57
2022/08/11 03:05:51;;;;;;;17.80;7.63;;;;;;;20.77;62.64;102405.00;5151577;28;20703;-58
2022/08/11 03:08:50;;;;;;;8.80;6.65;;;;;;;20.66;62.82;102388.31;5144085;28;20747;-59
2022/08/11 03:17:33;;;;;;;8.27;7.00;;;;;;;20.68;62.66;102397.00;5151778;28;20769;-55
2022/08/11 03:20:30;;;;;;;12.13;7.15;;;;;;;20.68;62.55;102398.84;5152183;28;20432;-58
2022/08/11 03:23:11;;;;;;;9.75;7.40;;;;;;;20.64;62.66;102389.50;5151686;28;20412;-57
2022/08/11 03:26:02;;;;;;;10.43;7.70;;;;;;;20.60;62.77;102391.69;5150530;28;20420;-58
2022/08/11 03:28:43;;;;;;;10.60;7.15;;;;;;;20.58;62.74;102390.19;5152335;28;20480;-57
2022/08/11 03:31:30;;;;;;;11.93;8.02;;;;;;;20.56;62.72;102393.03;5150292;28;20745;-58
2022/08/11 03:34:07;;;;;;;10.17;7.43;;;;;;;20.52;62.86;102397.09;5148692;28;20503;-58
2022/08/11 03:37:47;;;;;;;13.43;7.72;;;;;;;20.48;62.88;102395.78;5143820;28;20503;-58
2022/08/11 03:43:36;;;;;;;8.20;6.65;;;;;;;20.43;62.94;102392.78;5121419;28;20416;-56
2022/08/11 03:46:13;;;;;;;11.60;7.57;;;;;;;20.44;63.08;102397.13;5151337;28;20403;-57
2022/08/11 03:48:59;;;;;;;9.00;6.40;;;;;;;20.42;63.00;102394.63;5150038;28;20730;-57
2022/08/11 03:51:39;;;;;;;12.88;7.40;;;;;;;20.41;63.04;102386.78;5150085;28;20514;-59
2022/08/11 03:54:22;;;;;;;10.00;7.72;;;;;;;20.40;62.95;102393.13;5161968;28;20439;-55
2022/08/11 03:57:50;;;;;;;10.45;7.22;;;;;;;20.39;62.90;102394.16;5156483;28;20412;-57
2022/08/11 04:01:04;;;;;;;7.70;6.63;;;;;;;20.35;63.04;102403.56;5142583;28;20413;-57
2022/08/11 04:04:14;;;;;;;12.23;7.40;;;;;;;20.31;63.14;102399.56;5150719;28;20435;-58
2022/08/11 04:07:53;;;;;;;8.82;7.07;;;;;;;20.30;63.16;102403.25;5145098;28;20408;-56
2022/08/11 04:11:05;;;;;;;11.27;7.07;;;;;;;20.29;63.35;102396.22;5127375;28;20894;-58
2022/08/11 04:18:10;;;;;;;9.70;7.22;;;;;;;20.27;63.02;102402.59;5120480;28;20414;-57
2022/08/11 04:21:26;;;;;;;8.77;6.30;;;;;;;20.23;63.12;102395.91;5125921;28;20418;-50
2022/08/11 04:24:40;;;;;;;9.93;7.65;;;;;;;20.22;63.15;102402.28;5117606;28;20435;-57
2022/08/11 04:27:45;;;;;;;9.63;6.82;;;;;;;20.22;63.31;102402.28;5121831;28;20852;-56
2022/08/11 04:30:23;;;;;;;9.73;7.13;;;;;;;20.19;63.54;102391.91;5126061;28;20739;-57
2022/08/11 04:33:41;;;;;;;11.38;6.32;;;;;;;20.19;63.19;102391.06;5119262;28;20517;-57
2022/08/11 04:40:43;;;;;;;7.53;6.32;;;;;;;20.17;63.47;102390.41;5150529;28;20742;-58
2022/08/11 04:44:16;;;;;;;7.93;6.78;;;;;;;20.15;63.35;102395.94;5121766;28;20405;-58
2022/08/11 05:01:39;;;;;;;7.97;6.65;;;;;;;20.16;63.44;102389.59;5143074;28;20753;-57
2022/08/11 05:03:35;;;;;;;10.32;6.38;;;;;;;20.30;63.09;102382.63;5139226;28;20739;-47
2022/08/11 05:06:50;;;;;;;9.63;6.90;;;;;;;20.36;63.05;102386.44;5145444;28;20929;-57
2022/08/11 05:09:35;;;;;;;7.72;6.93;;;;;;;20.38;63.01;102384.44;5145329;28;20412;-57
2022/08/11 05:12:28;;;;;;;10.65;7.10;;;;;;;20.42;62.99;102385.75;5142688;28;20416;-57
2022/08/11 05:35:35;;;;;;;10.77;6.70;;;;;;;20.66;63.04;102393.66;5147392;28;20405;-56
2022/08/11 05:58:13;;;;;;;5.55;4.63;;;;;;;26.11;56.75;102403.00;5134036;28;20816;-57
2022/08/11 06:00:48;;;;;;;6.82;4.20;;;;;;;27.55;55.06;102398.56;5146541;28;20739;-57
2022/08/11 06:03:27;;;;;;;6.93;3.87;;;;;;;28.79;53.39;102408.25;5143803;28;20532;-58
2022/08/11 06:06:00;;;;;;;6.88;3.70;;;;;;;29.90;51.67;102403.75;5132258;28;20395;-57
2022/08/11 06:08:35;;;;;;;5.00;3.83;;;;;;;30.96;49.93;102406.78;5134683;28;20878;-57
2022/08/11 06:11:07;;;;;;;5.60;3.45;;;;;;;31.49;48.96;102401.03;5144692;28;20518;-58
2022/08/11 06:13:44;;;;;;;7.72;3.47;;;;;;;32.11;47.49;102398.81;5149313;28;20420;-58
2022/08/11 06:16:25;;;;;;;5.10;3.55;;;;;;;32.54;46.27;102382.56;5146002;28;20409;-57
2022/08/11 06:18:59;;;;;;;3.47;3.17;;;;;;;32.87;45.68;102406.09;5149037;28;20428;-57
2022/08/11 06:21:34;;;;;;;5.30;3.67;;;;;;;33.07;44.70;102394.47;5149436;28;21913;-57
2022/08/11 06:24:13;;;;;;;5.53;3.30;;;;;;;33.51;44.02;102402.41;5148335;28;20959;-57
2022/08/11 06:26:50;;;;;;;6.60;4.28;;;;;;;33.85;43.14;102402.84;5146039;28;20888;-57
2022/08/11 06:29:25;;;;;;;5.75;3.40;;;;;;;34.08;42.36;102398.81;5148356;28;20429;-57
2022/08/11 06:32:02;;;;;;;5.53;3.28;;;;;;;34.22;41.96;102385.41;5147553;28;20426;-56
2022/08/11 06:34:53;;;;;;;5.45;3.60;;;;;;;34.63;40.99;102396.44;5147752;28;20405;-57
2022/08/11 06:37:36;;;;;;;7.07;3.65;;;;;;;35.12;40.23;102390.34;5145192;28;20425;-56
2022/08/11 06:40:15;;;;;;;5.22;3.30;;;;;;;35.18;39.83;102391.97;5145344;28;20973;-57
2022/08/11 06:42:57;;;;;;;5.88;3.28;;;;;;;35.27;39.40;102393.03;5166757;28;20413;-55
2022/08/11 06:45:36;;;;;;;4.97;3.30;;;;;;;35.48;38.92;102390.25;5169351;28;20415;-57
2022/08/11 06:48:18;;;;;;;7.63;3.22;;;;;;;35.86;37.86;102387.88;5149943;28;20419;-58
2022/08/11 06:53:48;;;;;;;2.97;2.50;;;;;;;36.39;36.84;102399.09;5139041;28;20404;-56
2022/08/11 07:02:49;;;;;;;6.10;2.55;;;;;;;35.25;37.08;102391.72;5143054;28;20409;-58
2022/08/11 07:05:26;;;;;;;4.30;2.70;;;;;;;35.58;36.57;102392.97;5147915;28;20413;-56
2022/08/11 07:17:48;;;;;;;3.47;2.45;;;;;;;35.59;35.93;102386.38;5125924;28;20435;-57
2022/08/11 07:28:55;;;;;;;4.40;2.88;;;;;;;35.81;35.02;102383.25;5137559;28;20412;-54
2022/08/11 07:31:35;;;;;;;4.30;2.35;;;;;;;35.68;35.15;102389.34;5144534;28;20922;-54
2022/08/11 07:34:19;;;;;;;2.58;1.90;;;;;;;35.63;34.88;102386.63;5148666;28;20437;-54
2022/08/11 07:36:56;;;;;;;4.22;2.10;;;;;;;35.87;34.17;102386.78;5146773;28;20401;-54
2022/08/11 07:39:33;;;;;;;4.35;2.50;;;;;;;35.92;34.10;102384.00;5136618;28;20756;-56
2022/08/11 07:42:08;;;;;;;2.88;2.10;;;;;;;35.56;34.28;102386.94;5148612;28;20421;-54
2022/08/11 07:53:15;;;;;;;5.13;1.80;;;;;;;35.02;34.37;102382.09;5139893;28;20893;-54
2022/08/11 07:55:49;;;;;;;12.93;2.20;;;;;;;34.75;34.17;102375.03;5149704;28;20421;-54
2022/08/11 08:18:27;;;;;;;2.42;1.52;;;;;;;33.46;35.03;102388.69;5132572;28;20426;-53
2022/08/11 08:21:10;;;;;;;5.43;1.90;;;;;;;33.37;34.61;102391.09;5151519;28;20512;-55
2022/08/11 08:23:45;;;;;;;5.93;1.55;;;;;;;33.48;34.51;102390.06;5149953;28;20849;-54
2022/08/11 08:32:02;;;;;;;4.78;1.50;;;;;;;33.29;34.62;102394.34;5149291;28;20420;-55
2022/08/11 08:34:35;;;;;;;5.13;1.70;;;;;;;33.78;34.36;102387.75;5162974;28;20891;-54
2022/08/11 08:37:08;;;;;;;4.30;1.52;;;;;;;34.01;34.04;102391.94;5161346;28;20434;-53
2022/08/11 08:39:41;;;;;;;3.17;1.55;;;;;;;33.92;34.00;102397.94;5146199;28;20416;-49
2022/08/11 08:42:21;;;;;;;3.22;1.38;;;;;;;33.83;34.34;102394.06;5147355;28;20794;-52
2022/08/11 08:44:59;;;;;;;3.13;1.38;;;;;;;33.90;33.97;102394.63;5150117;28;20510;-54
2022/08/11 08:47:35;;;;;;;2.47;1.20;;;;;;;33.78;33.95;102391.31;5150776;28;20965;-52
2022/08/11 08:50:12;;;;;;;3.60;1.30;;;;;;;33.67;34.28;102406.06;5146560;28;20436;-54
2022/08/11 08:52:52;;;;;;;5.00;1.30;;;;;;;33.22;34.22;102389.09;5136530;28;20432;-54
2022/08/11 08:55:26;;;;;;;4.25;1.25;;;;;;;32.81;34.61;102388.00;5148412;28;20450;-55
2022/08/11 08:58:01;;;;;;;2.97;1.20;;;;;;;32.68;34.83;102383.78;5147111;28;20417;-54
2022/08/11 09:00:41;;;;;;;3.95;1.40;;;;;;;32.74;34.61;102381.94;5146187;28;20409;-53
2022/08/11 09:03:14;;;;;;;7.50;1.75;;;;;;;32.56;34.79;102386.69;5148621;28;20435;-53
2022/08/11 09:05:47;;;;;;;4.22;1.40;;;;;;;32.46;34.73;102375.69;5150400;28;20495;-53
2022/08/11 09:08:21;;;;;;;5.18;1.60;;;;;;;32.40;34.57;102376.69;5149569;28;20430;-54
2022/08/11 09:13:57;;;;;;;6.00;1.50;;;;;;;31.94;34.55;102350.81;5125750;28;20448;-51
2022/08/11 09:16:30;;;;;;;4.78;1.20;;;;;;;31.84;34.53;102371.44;5150554;28;20491;-56
2022/08/11 09:19:02;;;;;;;4.15;1.45;;;;;;;31.61;34.84;102375.25;5150285;28;20427;-52
2022/08/11 09:21:38;;;;;;;8.57;1.77;;;;;;;31.35;34.76;102367.81;5150213;28;20497;-54
2022/08/11 09:27:06;;;;;;;2.92;1.63;;;;;;;31.06;34.68;102370.66;5148036;28;20957;-54
2022/08/11 09:29:40;;;;;;;2.38;1.48;;;;;;;30.99;34.76;102367.28;5161095;28;20407;-51
2022/08/11 09:32:13;;;;;;;2.75;1.20;;;;;;;31.05;34.55;102366.28;5167945;28;20697;-53
2022/08/11 09:34:46;;;;;;;6.05;1.40;;;;;;;30.96;34.71;102362.31;5169780;28;20867;-52
2022/08/11 09:40:32;;;;;;;6.47;1.67;;;;;;;31.00;34.25;102363.47;5150003;28;20771;-52
2022/08/11 09:46:06;;;;;;;4.13;1.45;;;;;;;30.98;34.30;102362.91;5147061;28;20421;-52
2022/08/11 09:48:42;;;;;;;5.10;1.88;;;;;;;31.02;34.01;102358.59;5146586;28;20489;-51
2022/08/11 09:51:16;;;;;;;1.70;1.37;;;;;;;31.08;34.13;102354.88;5135096;28;20850;-53
2022/08/11 09:53:50;;;;;;;2.72;1.33;;;;;;;31.11;34.16;102354.34;5130062;28;20418;-54
2022/08/11 09:59:19;;;;;;;2.40;1.40;;;;;;;31.17;33.76;102353.34;5143004;28;20761;-51
2022/08/11 10:01:58;;;;;;;4.45;1.60;;;;;;;31.36;33.41;102355.81;5149180;28;20507;-49
2022/08/11 10:04:37;;;;;;;2.40;1.33;;;;;;;31.32;33.34;102354.66;5142798;28;20428;-53
2022/08/11 10:07:09;;;;;;;4.85;1.70;;;;;;;31.21;33.36;102354.50;5148732;28;20431;-51
2022/08/11 10:09:47;;;;;;;2.83;1.30;;;;;;;31.28;32.84;102356.22;5145162;28;20842;-51
2022/08/11 10:12:24;;;;;;;3.28;1.75;;;;;;;31.29;32.63;102346.97;5143372;28;20409;-51
2022/08/11 10:21:02;;;;;;;2.83;1.60;;;;;;;31.12;32.66;102345.09;5138387;28;20429;-51
2022/08/11 10:26:53;;;;;;;4.55;1.60;;;;;;;30.88;32.76;102352.69;5164047;28;20427;-52
2022/08/11 10:35:14;;;;;;;8.17;2.10;;;;;;;30.73;32.73;102341.50;5169492;28;20770;-52
2022/08/11 10:38:13;;;;;;;5.30;2.00;;;;;;;30.71;32.91;102338.19;5151969;28;20420;-50
2022/08/11 10:43:01;;;;;;;11.00;2.25;;;;;;;30.74;33.06;102333.06;5146458;28;20420;-50
2022/08/11 10:43:41;;;;;;;5.85;2.00;;;;;;;30.68;33.07;102334.03;5149084;28;20416;-53
2022/08/11 10:49:04;;;;;;;4.05;1.70;;;;;;;30.86;32.59;102335.72;5121701;28;20412;-51
2022/08/11 11:00:13;;;;;;;3.30;2.10;;;;;;;31.21;32.47;102321.75;5149855;28;20421;-49
2022/08/11 11:02:48;;;;;;;5.07;2.20;;;;;;;31.23;32.45;102330.50;5146996;28;20879;-54
2022/08/11 11:05:25;;;;;;;5.93;1.90;;;;;;;31.22;32.71;102328.06;5148674;28;20423;-54
2022/08/11 11:08:51;;;;;;;3.47;1.77;;;;;;;31.28;32.54;102326.19;5149028;28;20742;-55
2022/08/11 11:11:02;;;;;;;4.03;1.90;;;;;;;31.44;32.35;102319.91;5146671;28;20416;-56
2022/08/11 11:19:22;;;;;;;5.35;1.83;;;;;;;31.22;32.32;102326.16;5126486;28;20415;-55
2022/08/11 11:22:36;;;;;;;3.67;1.73;;;;;;;31.32;32.09;102316.44;5148112;28;20769;-50
2022/08/11 11:25:05;;;;;;;7.37;1.90;;;;;;;31.52;32.12;102316.69;5170249;28;20923;-50
2022/08/11 11:27:54;;;;;;;6.20;2.20;;;;;;;31.53;31.57;102321.09;5173132;28;20429;-49
2022/08/11 11:30:32;;;;;;;5.53;1.63;;;;;;;31.61;31.50;102320.63;5169031;28;20417;-52
2022/08/11 11:33:13;;;;;;;3.13;1.87;;;;;;;31.67;31.31;102319.59;5172923;28;20734;-50
2022/08/11 11:35:59;;;;;;;4.07;1.85;;;;;;;31.80;31.13;102309.38;5170024;28;20724;-49
2022/08/11 11:38:32;;;;;;;7.88;2.03;;;;;;;31.90;30.85;102315.00;5131983;28;20450;-51
2022/08/11 11:43:56;;;;;;;9.68;2.30;;;;;;;32.08;30.56;102311.84;5126867;28;20767;-52
2022/08/11 11:46:32;;;;;;;5.23;1.93;;;;;;;31.95;30.71;102315.00;5131352;28;20514;-53
2022/08/11 11:49:07;;;;;;;4.65;1.85;;;;;;;31.97;30.61;102310.13;5147464;28;20502;-51
2022/08/11 11:51:40;;;;;;;2.92;1.73;;;;;;;32.05;30.41;102309.66;5152422;28;20531;-51
2022/08/11 11:54:15;;;;;;;4.20;1.80;;;;;;;32.15;30.21;102312.50;5145353;28;20423;-48
2022/08/11 11:56:52;;;;;;;3.00;1.75;;;;;;;32.15;30.14;102320.69;5147794;28;20413;-53
2022/08/11 12:02:17;;;;;;;5.10;1.88;;;;;;;32.20;29.88;102308.16;5149060;28;20421;-52
2022/08/11 12:04:49;;;;;;;2.95;1.38;;;;;;;32.33;30.07;102294.03;5146140;28;20433;-52
2022/08/11 12:10:12;;;;;;;5.53;1.90;;;;;;;32.40;29.85;102299.31;5149390;28;20425;-42
2022/08/11 12:15:34;;;;;;;4.80;1.80;;;;;;;32.63;29.76;102288.00;5128486;28;20884;-53
2022/08/11 12:18:06;;;;;;;6.27;1.83;;;;;;;32.65;29.46;102285.84;5156121;28;20864;-54
2022/08/11 12:20:39;;;;;;;4.45;1.80;;;;;;;32.53;29.71;102291.50;5166932;28;20724;-54
2022/08/11 12:28:59;;;;;;;4.38;1.48;;;;;;;32.47;29.70;102281.59;5170330;28;20418;-54
2022/08/11 12:31:33;;;;;;;3.70;1.55;;;;;;;32.59;29.42;102274.03;5171669;28;20887;-52
2022/08/11 12:34:09;;;;;;;2.78;1.20;;;;;;;32.66;29.44;102270.25;5171193;28;20735;-52
2022/08/11 12:36:48;;;;;;;5.03;2.20;;;;;;;32.77;29.13;102271.97;5148433;28;20418;-54
2022/08/11 12:45:26;;;;;;;3.72;1.70;;;;;;;32.79;29.34;102269.78;5145771;28;20877;-53
2022/08/11 12:45:28;;;;;;;4.32;1.60;;;;;;;32.52;29.25;102265.25;5143324;28;20414;-53
2022/08/11 12:53:58;;;;;;;5.03;1.70;;;;;;;32.84;28.65;102258.88;5138328;28;20484;-55
2022/08/11 13:05:15;;;;;;;9.70;2.07;;;;;;;32.80;28.46;102252.28;5145154;28;20877;-57
2022/08/11 13:07:49;;;;;;;3.13;1.75;;;;;;;32.74;28.36;102242.41;5151235;28;20424;-53
2022/08/11 13:13:08;;;;;;;5.85;1.50;;;;;;;32.93;28.26;102240.03;5150549;28;20405;-53
2022/08/11 13:15:42;;;;;;;6.20;1.40;;;;;;;32.98;28.03;102229.94;5154233;28;20428;-53
2022/08/11 13:18:21;;;;;;;3.65;1.75;;;;;;;33.07;27.63;102227.50;5148310;28;20431;-52
2022/08/11 13:20:55;;;;;;;2.90;1.42;;;;;;;33.05;27.96;102230.53;5150295;28;20744;-54
2022/08/11 13:23:29;;;;;;;3.55;1.30;;;;;;;33.06;27.89;102240.38;5150667;28;20436;-51
2022/08/11 13:26:02;;;;;;;6.80;1.30;;;;;;;33.14;27.47;102227.25;5149966;28;20421;-53
2022/08/11 13:28:36;;;;;;;3.50;1.65;;;;;;;33.26;27.28;102233.31;5145812;28;20755;-53
2022/08/11 13:31:13;;;;;;;4.22;1.55;;;;;;;33.22;27.44;102219.34;5146119;28;20420;-51
2022/08/11 13:33:50;;;;;;;3.70;1.60;;;;;;;33.39;26.91;102224.63;5148137;28;20514;-54
2022/08/11 13:36:27;;;;;;;3.67;1.70;;;;;;;33.64;26.71;102225.78;5149567;28;20470;-53
2022/08/11 13:39:00;;;;;;;3.13;1.65;;;;;;;33.83;26.46;102232.38;5150409;28;20424;-55
2022/08/11 13:41:39;;;;;;;4.63;1.60;;;;;;;33.80;26.78;102221.97;5149703;28;23975;-53
2022/08/11 13:44:15;;;;;;;7.00;1.60;;;;;;;33.91;26.37;102220.88;5145477;28;20738;-52
2022/08/11 13:46:49;;;;;;;5.72;1.50;;;;;;;33.98;26.10;102226.91;5146814;28;20738;-55
2022/08/11 13:49:24;;;;;;;3.42;1.20;;;;;;;34.00;26.31;102217.56;5146061;28;20882;-53
2022/08/11 13:51:57;;;;;;;2.30;1.15;;;;;;;33.99;26.54;102219.50;5149768;28;20416;-54
2022/08/11 13:54:34;;;;;;;4.00;1.60;;;;;;;33.77;26.67;102214.28;5149617;28;20525;-52
2022/08/11 13:57:10;;;;;;;2.58;1.30;;;;;;;33.70;26.45;102219.22;5149881;28;20425;-51
2022/08/11 13:59:42;;;;;;;2.10;1.30;;;;;;;33.51;26.93;102203.31;5148459;28;20913;-43
2022/08/11 14:02:21;;;;;;;2.10;1.20;;;;;;;33.47;26.63;102201.34;5148783;28;20801;-50
2022/08/11 14:04:59;;;;;;;4.50;1.38;;;;;;;33.51;26.75;102200.56;5149614;28;20510;-50
2022/08/11 14:07:38;;;;;;;3.60;1.50;;;;;;;33.59;26.56;102201.13;5149779;28;20435;-50
2022/08/11 14:10:14;;;;;;;3.15;1.40;;;;;;;33.73;26.26;102202.25;5154822;28;20894;-54
2022/08/11 14:15:47;;;;;;;2.95;1.40;;;;;;;33.70;26.62;102191.81;5151287;28;20850;-54
2022/08/11 14:18:25;;;;;;;1.65;1.10;;;;;;;33.71;26.21;102187.97;5149703;28;20417;-50
2022/08/11 14:23:58;;;;;;;3.63;1.50;;;;;;;33.50;26.72;102192.63;5147853;28;20429;-54
2022/08/11 14:26:37;;;;;;;4.45;1.23;;;;;;;33.38;26.24;102187.34;5148753;28;20798;-52
2022/08/11 14:29:14;;;;;;;3.08;1.30;;;;;;;33.41;26.21;102178.59;5149123;28;20499;-54
2022/08/11 14:31:49;;;;;;;3.70;1.50;;;;;;;33.48;26.19;102175.63;5139458;28;20807;-54
2022/08/11 14:34:24;;;;;;;6.28;1.60;;;;;;;33.51;26.06;102173.19;5148188;28;20691;-55
2022/08/11 14:37:00;;;;;;;4.75;1.15;;;;;;;33.64;25.97;102184.69;5147379;28;20858;-54
2022/08/11 14:39:38;;;;;;;2.10;1.20;;;;;;;33.66;26.07;102185.22;5147412;28;20423;-54
2022/08/11 14:48:01;;;;;;;3.10;1.38;;;;;;;33.72;26.01;102167.69;5144934;28;20894;-54
2022/08/11 14:50:34;;;;;;;3.70;1.40;;;;;;;33.80;25.82;102160.84;5146481;28;20437;-51
2022/08/11 14:53:11;;;;;;;4.28;1.80;;;;;;;33.79;26.00;102162.78;5137131;28;20852;-54
2022/08/11 14:58:35;;;;;;;4.63;1.70;;;;;;;33.67;25.87;102151.28;5151925;28;20754;-53
2022/08/11 15:03:05;;;;;;;2.80;1.20;;;;;;;33.66;26.09;102146.88;5153262;28;20428;-52
2022/08/11 15:03:59;;;;;;;2.28;1.40;;;;;;;33.78;25.84;102143.84;5152404;28;20413;-52
2022/08/11 15:06:32;;;;;;;4.40;1.73;;;;;;;33.89;25.48;102145.50;5158448;28;20456;-53
2022/08/11 15:09:06;;;;;;;4.35;1.50;;;;;;;34.07;25.42;102147.72;5172939;28;20402;-52
2022/08/11 15:17:21;;;;;;;4.27;1.40;;;;;;;34.07;25.42;102135.91;5150634;28;20946;-53
2022/08/11 15:25:34;;;;;;;1.53;1.10;;;;;;;33.69;26.06;102125.22;5151747;28;20412;-53
2022/08/11 15:45:46;;;;;;;4.47;1.57;;;;;;;33.70;26.52;102126.06;5151950;28;20401;-49
2022/08/11 15:45:50;;;;;;;3.33;1.37;;;;;;;33.40;27.11;102110.41;5148074;28;20411;-52
2022/08/11 15:48:34;;;;;;;1.67;1.58;;;;;;;33.24;27.16;102115.06;5150080;28;20878;-50
2022/08/11 15:51:10;;;;;;;5.88;1.50;;;;;;;33.22;27.44;102119.97;5143709;28;20421;-52
2022/08/11 15:53:48;;;;;;;2.97;1.73;;;;;;;33.14;27.57;102117.75;5142066;28;20870;-42
2022/08/11 15:56:23;;;;;;;2.97;1.60;;;;;;;33.03;27.73;102112.28;5150747;28;20435;-50
2022/08/11 16:04:46;;;;;;;3.90;1.60;;;;;;;33.17;27.92;102106.25;5117760;28;20806;-45
2022/08/11 16:07:25;;;;;;;3.45;1.17;;;;;;;33.12;28.00;102103.53;5119699;28;20878;-52
2022/08/11 16:10:04;;;;;;;4.10;1.45;;;;;;;33.13;28.07;102100.53;5122743;28;20802;-50
2022/08/11 16:12:41;;;;;;;4.20;1.20;;;;;;;33.16;28.08;102104.63;5123365;28;20415;-50
2022/08/11 16:18:22;;;;;;;4.93;1.60;;;;;;;33.26;27.94;102093.69;5126868;28;20923;-52
2022/08/11 16:20:56;;;;;;;3.47;1.50;;;;;;;33.22;28.36;102100.81;5124428;28;20477;-50
2022/08/11 16:23:28;;;;;;;1.92;1.48;;;;;;;32.98;28.61;102098.56;5137908;28;20770;-53
2022/08/11 16:26:01;;;;;;;1.70;1.23;;;;;;;33.03;28.41;102090.38;5150079;28;20755;-54
2022/08/11 16:28:36;;;;;;;3.63;1.60;;;;;;;33.08;28.33;102088.72;5151426;28;20419;-53
2022/08/11 16:31:12;;;;;;;3.90;1.30;;;;;;;33.10;28.39;102089.28;5150440;28;20417;-50
2022/08/11 16:33:45;;;;;;;3.95;1.58;;;;;;;33.08;28.39;102094.22;5145554;28;20873;-51
2022/08/11 16:39:10;;;;;;;3.05;1.75;;;;;;;33.28;28.62;102075.09;5150572;28;20424;-51
2022/08/11 16:47:26;;;;;;;1.73;1.30;;;;;;;33.51;27.99;102080.06;5149484;28;20758;-52
2022/08/11 16:49:59;;;;;;;3.75;1.30;;;;;;;33.42;28.39;102089.88;5150993;28;20424;-50
2022/08/11 16:52:31;;;;;;;1.90;1.30;;;;;;;33.34;28.30;102073.16;5151467;28;20737;-53
2022/08/11 16:55:04;;;;;;;3.20;1.30;;;;;;;33.10;28.40;102081.09;5147180;28;20424;-53
2022/08/11 17:00:31;;;;;;;2.13;1.17;;;;;;;32.84;28.65;102081.00;5160030;28;20780;-50
2022/08/11 17:14:41;;;;;;;2.25;1.42;;;;;;;32.23;29.55;102067.88;5163589;28;20417;-53
2022/08/11 17:17:17;;;;;;;2.55;1.20;;;;;;;32.18;29.89;102067.88;5147867;28;20737;-53
2022/08/11 17:19:56;;;;;;;3.33;1.57;;;;;;;32.24;29.73;102074.16;5149513;28;20853;-52
2022/08/11 17:25:27;;;;;;;4.90;1.65;;;;;;;32.10;29.70;102066.47;5137473;28;25505;-54
2022/08/11 17:28:01;;;;;;;2.72;1.33;;;;;;;31.92;29.91;102045.03;5145462;28;20822;-53
2022/08/11 17:36:25;;;;;;;3.85;1.30;;;;;;;31.79;30.76;102064.59;5148639;28;20417;-53
2022/08/11 17:38:58;;;;;;;3.80;1.75;;;;;;;31.81;30.97;102067.91;5150193;28;20782;-55
2022/08/11 17:50:03;;;;;;;3.63;1.83;;;;;;;31.66;31.92;102071.34;5133061;28;20513;-51
2022/08/11 18:01:12;;;;;;;4.95;1.80;;;;;;;31.37;33.01;102077.13;5141474;28;20418;-54
2022/08/11 18:03:44;;;;;;;6.28;1.67;;;;;;;31.30;33.22;102068.28;5146612;28;20416;-53
2022/08/11 18:06:18;;;;;;;8.40;1.70;;;;;;;31.19;33.57;102078.28;5148993;28;20420;-54
